sensor_id;sensor_type;location;lat;lon;timestamp;P1;durP1;ratioP1;P2;durP2;ratioP2
30543;SDS011;43388;46.308;4.600;2023-03-01T00:01:24;28.65;;;24.23;;
30543;SDS011;43388;46.308;4.600;2023-03-01T00:03:51;28.23;;;24.85;;
30543;SDS011;43388;46.308;4.600;2023-03-01T00:06:18;27.58;;;24.50;;
30543;SDS011;43388;46.308;4.600;2023-03-01T00:08:44;26.85;;;23.60;;
30543;SDS011;43388;46.308;4.600;2023-03-01T00:11:12;26.63;;;23.85;;
30543;SDS011;43388;46.308;4.600;2023-03-01T00:13:39;26.50;;;23.63;;
30543;SDS011;43388;46.308;4.600;2023-03-01T00:16:06;30.20;;;24.15;;
30543;SDS011;43388;46.308;4.600;2023-03-01T00:18:33;27.25;;;24.40;;
30543;SDS011;43388;46.308;4.600;2023-03-01T00:20:59;26.48;;;23.63;;
30543;SDS011;43388;46.308;4.600;2023-03-01T00:23:25;27.77;;;23.63;;
30543;SDS011;43388;46.308;4.600;2023-03-01T00:25:51;28.30;;;25.40;;
30543;SDS011;43388;46.308;4.600;2023-03-01T00:28:17;27.13;;;24.33;;
30543;SDS011;43388;46.308;4.600;2023-03-01T00:30:43;29.77;;;25.77;;
30543;SDS011;43388;46.308;4.600;2023-03-01T00:33:09;29.52;;;25.80;;
30543;SDS011;43388;46.308;4.600;2023-03-01T00:35:35;28.10;;;24.73;;
30543;SDS011;43388;46.308;4.600;2023-03-01T00:38:01;28.92;;;25.50;;
30543;SDS011;43388;46.308;4.600;2023-03-01T00:40:29;27.98;;;24.33;;
30543;SDS011;43388;46.308;4.600;2023-03-01T00:42:55;27.15;;;24.15;;
30543;SDS011;43388;46.308;4.600;2023-03-01T00:45:21;28.58;;;24.55;;
30543;SDS011;43388;46.308;4.600;2023-03-01T00:47:50;27.52;;;24.63;;
30543;SDS011;43388;46.308;4.600;2023-03-01T00:50:17;29.80;;;24.85;;
30543;SDS011;43388;46.308;4.600;2023-03-01T00:52:43;30.70;;;25.02;;
30543;SDS011;43388;46.308;4.600;2023-03-01T00:55:09;27.85;;;25.00;;
30543;SDS011;43388;46.308;4.600;2023-03-01T00:57:35;28.30;;;25.23;;
30543;SDS011;43388;46.308;4.600;2023-03-01T01:00:02;28.90;;;24.00;;
30543;SDS011;43388;46.308;4.600;2023-03-01T01:02:29;31.45;;;25.50;;
30543;SDS011;43388;46.308;4.600;2023-03-01T01:04:55;28.55;;;25.55;;
30543;SDS011;43388;46.308;4.600;2023-03-01T01:07:21;29.73;;;24.85;;
30543;SDS011;43388;46.308;4.600;2023-03-01T01:09:47;28.67;;;24.90;;
30543;SDS011;43388;46.308;4.600;2023-03-01T01:12:13;28.55;;;25.55;;
30543;SDS011;43388;46.308;4.600;2023-03-01T01:14:39;26.17;;;23.33;;
30543;SDS011;43388;46.308;4.600;2023-03-01T01:17:05;29.60;;;25.10;;
30543;SDS011;43388;46.308;4.600;2023-03-01T01:19:31;29.63;;;26.52;;
30543;SDS011;43388;46.308;4.600;2023-03-01T01:21:57;29.15;;;25.60;;
30543;SDS011;43388;46.308;4.600;2023-03-01T01:24:23;29.67;;;26.48;;
30543;SDS011;43388;46.308;4.600;2023-03-01T01:26:49;31.48;;;27.80;;
30543;SDS011;43388;46.308;4.600;2023-03-01T01:29:15;28.38;;;25.30;;
30543;SDS011;43388;46.308;4.600;2023-03-01T01:31:42;31.67;;;25.95;;
30543;SDS011;43388;46.308;4.600;2023-03-01T01:34:11;30.98;;;27.58;;
30543;SDS011;43388;46.308;4.600;2023-03-01T01:36:38;31.98;;;27.20;;
30543;SDS011;43388;46.308;4.600;2023-03-01T01:39:04;29.25;;;25.98;;
30543;SDS011;43388;46.308;4.600;2023-03-01T01:41:30;29.45;;;26.30;;
30543;SDS011;43388;46.308;4.600;2023-03-01T01:44:11;33.60;;;26.45;;
30543;SDS011;43388;46.308;4.600;2023-03-01T01:46:38;31.52;;;25.98;;
30543;SDS011;43388;46.308;4.600;2023-03-01T01:49:06;31.75;;;26.33;;
30543;SDS011;43388;46.308;4.600;2023-03-01T01:51:37;31.85;;;25.85;;
30543;SDS011;43388;46.308;4.600;2023-03-01T01:54:07;32.15;;;26.80;;
30543;SDS011;43388;46.308;4.600;2023-03-01T01:56:34;31.27;;;26.90;;
30543;SDS011;43388;46.308;4.600;2023-03-01T01:59:03;32.30;;;28.02;;
30543;SDS011;43388;46.308;4.600;2023-03-01T02:01:29;28.98;;;25.85;;
30543;SDS011;43388;46.308;4.600;2023-03-01T02:03:55;31.08;;;26.67;;
30543;SDS011;43388;46.308;4.600;2023-03-01T02:06:21;32.05;;;27.23;;
30543;SDS011;43388;46.308;4.600;2023-03-01T02:08:54;29.65;;;25.83;;
30543;SDS011;43388;46.308;4.600;2023-03-01T02:11:21;30.58;;;26.50;;
30543;SDS011;43388;46.308;4.600;2023-03-01T02:13:47;32.13;;;27.88;;
30543;SDS011;43388;46.308;4.600;2023-03-01T02:16:14;33.95;;;28.45;;
30543;SDS011;43388;46.308;4.600;2023-03-01T02:18:41;32.80;;;28.02;;
30543;SDS011;43388;46.308;4.600;2023-03-01T02:23:45;33.70;;;27.25;;
30543;SDS011;43388;46.308;4.600;2023-03-01T02:26:18;32.63;;;28.02;;
30543;SDS011;43388;46.308;4.600;2023-03-01T02:28:44;31.88;;;27.33;;
30543;SDS011;43388;46.308;4.600;2023-03-01T02:31:11;30.17;;;27.00;;
30543;SDS011;43388;46.308;4.600;2023-03-01T02:33:58;34.47;;;27.30;;
30543;SDS011;43388;46.308;4.600;2023-03-01T02:36:26;31.90;;;27.92;;
30543;SDS011;43388;46.308;4.600;2023-03-01T02:38:57;34.30;;;27.85;;
30543;SDS011;43388;46.308;4.600;2023-03-01T02:41:23;32.97;;;28.98;;
30543;SDS011;43388;46.308;4.600;2023-03-01T02:43:50;31.42;;;27.98;;
30543;SDS011;43388;46.308;4.600;2023-03-01T02:46:21;37.13;;;30.40;;
30543;SDS011;43388;46.308;4.600;2023-03-01T02:51:18;35.28;;;28.65;;
30543;SDS011;43388;46.308;4.600;2023-03-01T02:53:58;37.75;;;28.55;;
30543;SDS011;43388;46.308;4.600;2023-03-01T02:56:26;35.35;;;29.50;;
30543;SDS011;43388;46.308;4.600;2023-03-01T02:58:52;32.20;;;27.92;;
30543;SDS011;43388;46.308;4.600;2023-03-01T03:01:19;33.33;;;28.13;;
30543;SDS011;43388;46.308;4.600;2023-03-01T03:03:45;33.35;;;27.23;;
30543;SDS011;43388;46.308;4.600;2023-03-01T03:06:11;33.33;;;27.05;;
30543;SDS011;43388;46.308;4.600;2023-03-01T03:08:37;31.55;;;28.15;;
30543;SDS011;43388;46.308;4.600;2023-03-01T03:11:03;36.17;;;29.00;;
30543;SDS011;43388;46.308;4.600;2023-03-01T03:13:30;33.70;;;28.25;;
30543;SDS011;43388;46.308;4.600;2023-03-01T03:15:57;32.55;;;28.65;;
30543;SDS011;43388;46.308;4.600;2023-03-01T03:18:23;33.70;;;28.13;;
30543;SDS011;43388;46.308;4.600;2023-03-01T03:20:53;35.83;;;29.40;;
30543;SDS011;43388;46.308;4.600;2023-03-01T03:23:20;33.22;;;27.95;;
30543;SDS011;43388;46.308;4.600;2023-03-01T03:25:49;35.10;;;29.27;;
30543;SDS011;43388;46.308;4.600;2023-03-01T03:28:16;34.47;;;29.58;;
30543;SDS011;43388;46.308;4.600;2023-03-01T03:30:42;36.67;;;29.58;;
30543;SDS011;43388;46.308;4.600;2023-03-01T03:33:12;32.53;;;28.65;;
30543;SDS011;43388;46.308;4.600;2023-03-01T03:35:43;34.50;;;30.75;;
30543;SDS011;43388;46.308;4.600;2023-03-01T03:38:10;37.78;;;29.05;;
30543;SDS011;43388;46.308;4.600;2023-03-01T03:40:48;40.70;;;30.25;;
30543;SDS011;43388;46.308;4.600;2023-03-01T03:43:18;33.58;;;28.92;;
30543;SDS011;43388;46.308;4.600;2023-03-01T03:45:44;33.47;;;28.98;;
30543;SDS011;43388;46.308;4.600;2023-03-01T03:48:11;36.00;;;30.30;;
30543;SDS011;43388;46.308;4.600;2023-03-01T03:50:38;35.55;;;29.60;;
30543;SDS011;43388;46.308;4.600;2023-03-01T03:53:05;36.17;;;30.98;;
30543;SDS011;43388;46.308;4.600;2023-03-01T03:55:32;34.75;;;30.70;;
30543;SDS011;43388;46.308;4.600;2023-03-01T03:57:58;34.63;;;30.75;;
30543;SDS011;43388;46.308;4.600;2023-03-01T04:00:31;33.20;;;29.58;;
30543;SDS011;43388;46.308;4.600;2023-03-01T04:02:57;35.30;;;29.10;;
30543;SDS011;43388;46.308;4.600;2023-03-01T04:05:23;35.25;;;30.02;;
30543;SDS011;43388;46.308;4.600;2023-03-01T04:07:49;34.45;;;30.42;;
30543;SDS011;43388;46.308;4.600;2023-03-01T04:10:26;35.22;;;30.10;;
30543;SDS011;43388;46.308;4.600;2023-03-01T04:12:52;34.83;;;29.88;;
30543;SDS011;43388;46.308;4.600;2023-03-01T04:15:18;36.08;;;30.38;;
30543;SDS011;43388;46.308;4.600;2023-03-01T04:17:45;36.78;;;30.42;;
30543;SDS011;43388;46.308;4.600;2023-03-01T04:20:15;35.20;;;29.55;;
30543;SDS011;43388;46.308;4.600;2023-03-01T04:22:52;35.78;;;30.42;;
30543;SDS011;43388;46.308;4.600;2023-03-01T04:25:19;39.65;;;31.40;;
30543;SDS011;43388;46.308;4.600;2023-03-01T04:27:45;35.45;;;30.52;;
30543;SDS011;43388;46.308;4.600;2023-03-01T04:30:11;37.10;;;31.63;;
30543;SDS011;43388;46.308;4.600;2023-03-01T04:32:37;39.10;;;31.73;;
30543;SDS011;43388;46.308;4.600;2023-03-01T04:35:03;37.08;;;31.20;;
30543;SDS011;43388;46.308;4.600;2023-03-01T04:37:29;36.92;;;31.35;;
30543;SDS011;43388;46.308;4.600;2023-03-01T04:39:55;36.92;;;29.92;;
30543;SDS011;43388;46.308;4.600;2023-03-01T04:42:21;37.45;;;31.63;;
30543;SDS011;43388;46.308;4.600;2023-03-01T04:44:47;38.58;;;31.45;;
30543;SDS011;43388;46.308;4.600;2023-03-01T04:47:16;38.47;;;30.83;;
30543;SDS011;43388;46.308;4.600;2023-03-01T04:49:42;38.65;;;32.05;;
30543;SDS011;43388;46.308;4.600;2023-03-01T04:52:08;37.50;;;32.58;;
30543;SDS011;43388;46.308;4.600;2023-03-01T04:54:34;38.78;;;32.60;;
30543;SDS011;43388;46.308;4.600;2023-03-01T04:57:01;35.97;;;31.50;;
30543;SDS011;43388;46.308;4.600;2023-03-01T04:59:28;39.08;;;32.80;;
30543;SDS011;43388;46.308;4.600;2023-03-01T05:01:54;41.63;;;33.63;;
30543;SDS011;43388;46.308;4.600;2023-03-01T05:04:21;41.38;;;33.47;;
30543;SDS011;43388;46.308;4.600;2023-03-01T05:06:47;37.30;;;31.52;;
30543;SDS011;43388;46.308;4.600;2023-03-01T05:09:13;37.80;;;31.40;;
30543;SDS011;43388;46.308;4.600;2023-03-01T05:11:39;37.42;;;31.88;;
30543;SDS011;43388;46.308;4.600;2023-03-01T05:14:05;38.75;;;32.53;;
30543;SDS011;43388;46.308;4.600;2023-03-01T05:16:32;38.45;;;32.95;;
30543;SDS011;43388;46.308;4.600;2023-03-01T05:18:58;38.78;;;31.40;;
30543;SDS011;43388;46.308;4.600;2023-03-01T05:21:25;39.20;;;33.08;;
30543;SDS011;43388;46.308;4.600;2023-03-01T05:23:51;37.28;;;30.35;;
30543;SDS011;43388;46.308;4.600;2023-03-01T05:26:18;35.97;;;30.92;;
30543;SDS011;43388;46.308;4.600;2023-03-01T05:28:46;37.03;;;31.25;;
30543;SDS011;43388;46.308;4.600;2023-03-01T05:31:12;38.80;;;32.47;;
30543;SDS011;43388;46.308;4.600;2023-03-01T05:33:39;40.33;;;33.30;;
30543;SDS011;43388;46.308;4.600;2023-03-01T05:36:06;41.60;;;34.20;;
30543;SDS011;43388;46.308;4.600;2023-03-01T05:38:32;36.95;;;31.90;;
30543;SDS011;43388;46.308;4.600;2023-03-01T05:40:59;36.97;;;31.88;;
30543;SDS011;43388;46.308;4.600;2023-03-01T05:43:25;38.47;;;32.05;;
30543;SDS011;43388;46.308;4.600;2023-03-01T05:45:51;35.35;;;31.10;;
30543;SDS011;43388;46.308;4.600;2023-03-01T05:48:17;35.80;;;30.85;;
30543;SDS011;43388;46.308;4.600;2023-03-01T05:50:44;39.75;;;34.25;;
30543;SDS011;43388;46.308;4.600;2023-03-01T05:53:13;38.92;;;32.45;;
30543;SDS011;43388;46.308;4.600;2023-03-01T05:55:40;38.55;;;32.67;;
30543;SDS011;43388;46.308;4.600;2023-03-01T05:58:07;37.65;;;31.70;;
30543;SDS011;43388;46.308;4.600;2023-03-01T06:00:34;37.83;;;30.90;;
30543;SDS011;43388;46.308;4.600;2023-03-01T06:03:00;40.22;;;32.35;;
30543;SDS011;43388;46.308;4.600;2023-03-01T06:05:26;36.33;;;32.38;;
30543;SDS011;43388;46.308;4.600;2023-03-01T06:07:53;38.25;;;31.13;;
30543;SDS011;43388;46.308;4.600;2023-03-01T06:10:20;39.60;;;32.63;;
30543;SDS011;43388;46.308;4.600;2023-03-01T06:12:46;37.20;;;32.33;;
30543;SDS011;43388;46.308;4.600;2023-03-01T06:15:13;38.95;;;34.72;;
30543;SDS011;43388;46.308;4.600;2023-03-01T06:17:40;35.85;;;31.95;;
30543;SDS011;43388;46.308;4.600;2023-03-01T06:20:08;37.67;;;32.58;;
30543;SDS011;43388;46.308;4.600;2023-03-01T06:22:34;37.05;;;32.88;;
30543;SDS011;43388;46.308;4.600;2023-03-01T06:25:00;40.50;;;32.53;;
30543;SDS011;43388;46.308;4.600;2023-03-01T06:27:26;39.47;;;32.97;;
30543;SDS011;43388;46.308;4.600;2023-03-01T06:29:52;42.45;;;32.03;;
30543;SDS011;43388;46.308;4.600;2023-03-01T06:32:18;39.63;;;33.72;;
30543;SDS011;43388;46.308;4.600;2023-03-01T06:34:44;38.75;;;31.17;;
30543;SDS011;43388;46.308;4.600;2023-03-01T06:37:10;43.95;;;32.42;;
30543;SDS011;43388;46.308;4.600;2023-03-01T06:39:37;38.28;;;33.38;;
30543;SDS011;43388;46.308;4.600;2023-03-01T06:42:03;42.90;;;35.53;;
30543;SDS011;43388;46.308;4.600;2023-03-01T06:44:29;41.38;;;34.38;;
30543;SDS011;43388;46.308;4.600;2023-03-01T06:46:55;44.28;;;37.80;;
30543;SDS011;43388;46.308;4.600;2023-03-01T06:49:21;43.85;;;39.08;;
30543;SDS011;43388;46.308;4.600;2023-03-01T06:51:47;42.15;;;33.38;;
30543;SDS011;43388;46.308;4.600;2023-03-01T06:54:13;40.78;;;33.83;;
30543;SDS011;43388;46.308;4.600;2023-03-01T06:56:39;40.80;;;35.10;;
30543;SDS011;43388;46.308;4.600;2023-03-01T06:59:05;42.88;;;35.03;;
30543;SDS011;43388;46.308;4.600;2023-03-01T07:01:31;39.80;;;34.15;;
30543;SDS011;43388;46.308;4.600;2023-03-01T07:03:57;41.28;;;35.53;;
30543;SDS011;43388;46.308;4.600;2023-03-01T07:06:23;45.33;;;37.45;;
30543;SDS011;43388;46.308;4.600;2023-03-01T07:08:49;44.75;;;36.17;;
30543;SDS011;43388;46.308;4.600;2023-03-01T07:11:15;41.28;;;35.90;;
30543;SDS011;43388;46.308;4.600;2023-03-01T07:13:41;43.50;;;34.22;;
30543;SDS011;43388;46.308;4.600;2023-03-01T07:16:07;45.35;;;35.20;;
30543;SDS011;43388;46.308;4.600;2023-03-01T07:18:33;39.50;;;32.58;;
30543;SDS011;43388;46.308;4.600;2023-03-01T07:21:06;37.88;;;32.05;;
30543;SDS011;43388;46.308;4.600;2023-03-01T07:23:32;41.70;;;33.13;;
30543;SDS011;43388;46.308;4.600;2023-03-01T07:25:58;43.35;;;33.65;;
30543;SDS011;43388;46.308;4.600;2023-03-01T07:28:25;39.35;;;32.85;;
30543;SDS011;43388;46.308;4.600;2023-03-01T07:30:51;36.28;;;30.65;;
30543;SDS011;43388;46.308;4.600;2023-03-01T07:33:17;37.50;;;31.88;;
30543;SDS011;43388;46.308;4.600;2023-03-01T07:35:43;39.88;;;33.65;;
30543;SDS011;43388;46.308;4.600;2023-03-01T07:38:09;38.03;;;32.75;;
30543;SDS011;43388;46.308;4.600;2023-03-01T07:40:35;41.00;;;32.47;;
30543;SDS011;43388;46.308;4.600;2023-03-01T07:43:01;40.58;;;33.55;;
30543;SDS011;43388;46.308;4.600;2023-03-01T07:45:28;40.70;;;32.55;;
30543;SDS011;43388;46.308;4.600;2023-03-01T07:47:54;38.55;;;33.22;;
30543;SDS011;43388;46.308;4.600;2023-03-01T07:50:21;37.50;;;31.88;;
30543;SDS011;43388;46.308;4.600;2023-03-01T07:52:48;40.45;;;34.00;;
30543;SDS011;43388;46.308;4.600;2023-03-01T07:55:15;39.72;;;33.85;;
30543;SDS011;43388;46.308;4.600;2023-03-01T07:57:41;38.42;;;32.95;;
30543;SDS011;43388;46.308;4.600;2023-03-01T08:00:08;44.03;;;32.33;;
30543;SDS011;43388;46.308;4.600;2023-03-01T08:02:35;39.10;;;32.58;;
30543;SDS011;43388;46.308;4.600;2023-03-01T08:05:01;40.45;;;32.42;;
30543;SDS011;43388;46.308;4.600;2023-03-01T08:07:27;36.60;;;30.70;;
30543;SDS011;43388;46.308;4.600;2023-03-01T08:09:53;39.67;;;32.60;;
30543;SDS011;43388;46.308;4.600;2023-03-01T08:12:19;38.83;;;32.53;;
30543;SDS011;43388;46.308;4.600;2023-03-01T08:14:45;37.72;;;32.53;;
30543;SDS011;43388;46.308;4.600;2023-03-01T08:17:13;39.80;;;32.65;;
30543;SDS011;43388;46.308;4.600;2023-03-01T08:19:39;37.90;;;33.50;;
30543;SDS011;43388;46.308;4.600;2023-03-01T08:22:05;39.00;;;31.45;;
30543;SDS011;43388;46.308;4.600;2023-03-01T08:24:31;38.53;;;32.53;;
30543;SDS011;43388;46.308;4.600;2023-03-01T08:26:57;35.65;;;30.95;;
30543;SDS011;43388;46.308;4.600;2023-03-01T08:29:23;41.13;;;31.83;;
30543;SDS011;43388;46.308;4.600;2023-03-01T08:31:50;36.03;;;32.03;;
30543;SDS011;43388;46.308;4.600;2023-03-01T08:34:16;39.25;;;31.45;;
30543;SDS011;43388;46.308;4.600;2023-03-01T08:36:43;38.75;;;33.50;;
30543;SDS011;43388;46.308;4.600;2023-03-01T08:39:11;35.08;;;30.40;;
30543;SDS011;43388;46.308;4.600;2023-03-01T08:41:37;38.47;;;31.50;;
30543;SDS011;43388;46.308;4.600;2023-03-01T08:44:03;39.25;;;34.05;;
30543;SDS011;43388;46.308;4.600;2023-03-01T08:46:37;38.15;;;30.73;;
30543;SDS011;43388;46.308;4.600;2023-03-01T08:49:04;38.00;;;32.13;;
30543;SDS011;43388;46.308;4.600;2023-03-01T08:51:30;35.90;;;31.95;;
30543;SDS011;43388;46.308;4.600;2023-03-01T08:54:01;34.70;;;30.65;;
30543;SDS011;43388;46.308;4.600;2023-03-01T08:56:27;36.38;;;31.40;;
30543;SDS011;43388;46.308;4.600;2023-03-01T08:58:53;38.53;;;32.03;;
30543;SDS011;43388;46.308;4.600;2023-03-01T09:01:19;39.60;;;33.00;;
30543;SDS011;43388;46.308;4.600;2023-03-01T09:03:45;37.05;;;32.65;;
30543;SDS011;43388;46.308;4.600;2023-03-01T09:06:12;39.92;;;33.95;;
30543;SDS011;43388;46.308;4.600;2023-03-01T09:08:40;41.75;;;32.90;;
30543;SDS011;43388;46.308;4.600;2023-03-01T09:11:07;37.88;;;32.75;;
30543;SDS011;43388;46.308;4.600;2023-03-01T09:13:33;36.42;;;31.55;;
30543;SDS011;43388;46.308;4.600;2023-03-01T09:16:03;37.88;;;32.42;;
30543;SDS011;43388;46.308;4.600;2023-03-01T09:18:29;41.22;;;32.55;;
30543;SDS011;43388;46.308;4.600;2023-03-01T09:21:06;39.38;;;31.83;;
30543;SDS011;43388;46.308;4.600;2023-03-01T09:23:33;38.65;;;31.55;;
30543;SDS011;43388;46.308;4.600;2023-03-01T09:25:59;34.50;;;29.70;;
30543;SDS011;43388;46.308;4.600;2023-03-01T09:28:25;36.38;;;31.92;;
30543;SDS011;43388;46.308;4.600;2023-03-01T09:30:51;35.08;;;31.13;;
30543;SDS011;43388;46.308;4.600;2023-03-01T09:33:17;37.47;;;33.17;;
30543;SDS011;43388;46.308;4.600;2023-03-01T09:35:43;37.50;;;31.80;;
30543;SDS011;43388;46.308;4.600;2023-03-01T09:38:14;39.13;;;32.22;;
30543;SDS011;43388;46.308;4.600;2023-03-01T09:40:43;36.13;;;32.15;;
30543;SDS011;43388;46.308;4.600;2023-03-01T09:43:32;36.88;;;32.40;;
30543;SDS011;43388;46.308;4.600;2023-03-01T09:46:03;38.45;;;32.45;;
30543;SDS011;43388;46.308;4.600;2023-03-01T09:48:33;39.50;;;32.78;;
30543;SDS011;43388;46.308;4.600;2023-03-01T09:51:02;37.88;;;32.33;;
30543;SDS011;43388;46.308;4.600;2023-03-01T09:53:32;42.60;;;34.13;;
30543;SDS011;43388;46.308;4.600;2023-03-01T09:56:02;35.38;;;31.58;;
30543;SDS011;43388;46.308;4.600;2023-03-01T09:58:31;38.15;;;33.13;;
30543;SDS011;43388;46.308;4.600;2023-03-01T10:01:02;36.00;;;31.98;;
30543;SDS011;43388;46.308;4.600;2023-03-01T10:05:56;36.78;;;31.42;;
30543;SDS011;43388;46.308;4.600;2023-03-01T10:08:26;40.90;;;34.97;;
30543;SDS011;43388;46.308;4.600;2023-03-01T10:10:54;35.65;;;31.80;;
30543;SDS011;43388;46.308;4.600;2023-03-01T10:15:50;36.05;;;31.95;;
30543;SDS011;43388;46.308;4.600;2023-03-01T10:18:24;38.55;;;32.95;;
30543;SDS011;43388;46.308;4.600;2023-03-01T10:20:53;40.30;;;32.20;;
30543;SDS011;43388;46.308;4.600;2023-03-01T10:23:22;39.50;;;30.70;;
30543;SDS011;43388;46.308;4.600;2023-03-01T10:28:25;37.30;;;31.40;;
30543;SDS011;43388;46.308;4.600;2023-03-01T10:30:52;38.88;;;31.83;;
30543;SDS011;43388;46.308;4.600;2023-03-01T10:35:44;40.83;;;35.45;;
30543;SDS011;43388;46.308;4.600;2023-03-01T10:38:14;38.40;;;33.97;;
30543;SDS011;43388;46.308;4.600;2023-03-01T10:40:59;40.05;;;35.50;;
30543;SDS011;43388;46.308;4.600;2023-03-01T10:43:54;40.85;;;34.97;;
30543;SDS011;43388;46.308;4.600;2023-03-01T10:46:24;36.20;;;32.30;;
30543;SDS011;43388;46.308;4.600;2023-03-01T10:51:35;37.97;;;33.38;;
30543;SDS011;43388;46.308;4.600;2023-03-01T10:54:01;39.83;;;32.88;;
30543;SDS011;43388;46.308;4.600;2023-03-01T10:56:27;39.25;;;32.58;;
30543;SDS011;43388;46.308;4.600;2023-03-01T10:58:59;40.00;;;33.95;;
30543;SDS011;43388;46.308;4.600;2023-03-01T11:01:30;40.10;;;32.97;;
30543;SDS011;43388;46.308;4.600;2023-03-01T11:06:32;36.97;;;32.95;;
30543;SDS011;43388;46.308;4.600;2023-03-01T11:09:13;37.13;;;32.97;;
30543;SDS011;43388;46.308;4.600;2023-03-01T11:11:39;37.58;;;32.88;;
30543;SDS011;43388;46.308;4.600;2023-03-01T11:16:41;38.30;;;34.05;;
30543;SDS011;43388;46.308;4.600;2023-03-01T11:21:39;36.78;;;32.70;;
30543;SDS011;43388;46.308;4.600;2023-03-01T11:24:06;38.70;;;32.17;;
30543;SDS011;43388;46.308;4.600;2023-03-01T11:26:36;37.30;;;32.67;;
30543;SDS011;43388;46.308;4.600;2023-03-01T11:29:04;36.97;;;33.10;;
30543;SDS011;43388;46.308;4.600;2023-03-01T11:31:31;41.28;;;33.70;;
30543;SDS011;43388;46.308;4.600;2023-03-01T11:40:02;60.13;;;47.58;;
30543;SDS011;43388;46.308;4.600;2023-03-01T11:42:38;50.30;;;44.90;;
30543;SDS011;43388;46.308;4.600;2023-03-01T11:44:44;39.58;;;35.05;;
30543;SDS011;43388;46.308;4.600;2023-03-01T11:49:42;90.72;;;80.28;;
30543;SDS011;43388;46.308;4.600;2023-03-01T12:00:31;42.13;;;37.78;;
30543;SDS011;43388;46.308;4.600;2023-03-01T12:03:00;38.42;;;34.33;;
30543;SDS011;43388;46.308;4.600;2023-03-01T12:08:06;38.33;;;33.70;;
30543;SDS011;43388;46.308;4.600;2023-03-01T12:18:00;36.95;;;32.95;;
30543;SDS011;43388;46.308;4.600;2023-03-01T12:25:43;34.97;;;31.02;;
30543;SDS011;43388;46.308;4.600;2023-03-01T12:28:24;35.05;;;31.23;;
30543;SDS011;43388;46.308;4.600;2023-03-01T12:38:41;34.90;;;31.25;;
30543;SDS011;43388;46.308;4.600;2023-03-01T12:41:11;35.72;;;32.13;;
30543;SDS011;43388;46.308;4.600;2023-03-01T12:48:45;33.63;;;30.20;;
30543;SDS011;43388;46.308;4.600;2023-03-01T12:51:19;33.78;;;30.17;;
30543;SDS011;43388;46.308;4.600;2023-03-01T12:53:47;33.20;;;29.75;;
30543;SDS011;43388;46.308;4.600;2023-03-01T12:56:15;32.45;;;29.35;;
30543;SDS011;43388;46.308;4.600;2023-03-01T13:02:01;34.75;;;29.52;;
30543;SDS011;43388;46.308;4.600;2023-03-01T13:09:38;35.38;;;31.77;;
30543;SDS011;43388;46.308;4.600;2023-03-01T13:14:54;36.08;;;32.60;;
30543;SDS011;43388;46.308;4.600;2023-03-01T13:17:29;36.55;;;32.00;;
30543;SDS011;43388;46.308;4.600;2023-03-01T13:19:57;35.03;;;31.30;;
30543;SDS011;43388;46.308;4.600;2023-03-01T13:22:30;33.45;;;29.95;;
30543;SDS011;43388;46.308;4.600;2023-03-01T13:25:03;33.03;;;29.55;;
30543;SDS011;43388;46.308;4.600;2023-03-01T13:27:38;35.05;;;31.40;;
30543;SDS011;43388;46.308;4.600;2023-03-01T13:30:04;33.92;;;30.48;;
30543;SDS011;43388;46.308;4.600;2023-03-01T13:32:48;35.08;;;31.23;;
30543;SDS011;43388;46.308;4.600;2023-03-01T13:37:40;36.22;;;31.58;;
30543;SDS011;43388;46.308;4.600;2023-03-01T13:42:46;35.83;;;31.73;;
30543;SDS011;43388;46.308;4.600;2023-03-01T13:47:45;36.25;;;31.98;;
30543;SDS011;43388;46.308;4.600;2023-03-01T13:50:21;37.08;;;31.73;;
30543;SDS011;43388;46.308;4.600;2023-03-01T13:52:53;37.70;;;32.03;;
30543;SDS011;43388;46.308;4.600;2023-03-01T13:57:53;37.60;;;31.88;;
30543;SDS011;43388;46.308;4.600;2023-03-01T14:05:35;36.38;;;32.45;;
30543;SDS011;43388;46.308;4.600;2023-03-01T14:08:04;37.17;;;32.42;;
30543;SDS011;43388;46.308;4.600;2023-03-01T14:10:36;42.03;;;32.63;;
30543;SDS011;43388;46.308;4.600;2023-03-01T14:13:13;34.38;;;30.63;;
30543;SDS011;43388;46.308;4.600;2023-03-01T14:15:49;36.45;;;32.45;;
30543;SDS011;43388;46.308;4.600;2023-03-01T14:18:21;35.65;;;31.67;;
30543;SDS011;43388;46.308;4.600;2023-03-01T14:20:50;35.40;;;31.63;;
30543;SDS011;43388;46.308;4.600;2023-03-01T14:23:21;38.58;;;32.22;;
30543;SDS011;43388;46.308;4.600;2023-03-01T14:25:49;35.78;;;31.85;;
30543;SDS011;43388;46.308;4.600;2023-03-01T14:28:19;37.35;;;33.25;;
30543;SDS011;43388;46.308;4.600;2023-03-01T14:30:50;36.55;;;32.60;;
30543;SDS011;43388;46.308;4.600;2023-03-01T14:33:18;39.75;;;34.85;;
30543;SDS011;43388;46.308;4.600;2023-03-01T14:35:51;37.22;;;33.15;;
30543;SDS011;43388;46.308;4.600;2023-03-01T14:38:21;39.70;;;32.20;;
30543;SDS011;43388;46.308;4.600;2023-03-01T14:40:48;37.22;;;32.28;;
30543;SDS011;43388;46.308;4.600;2023-03-01T14:43:18;38.97;;;33.25;;
30543;SDS011;43388;46.308;4.600;2023-03-01T14:45:47;38.30;;;33.38;;
30543;SDS011;43388;46.308;4.600;2023-03-01T14:48:14;38.47;;;33.78;;
30543;SDS011;43388;46.308;4.600;2023-03-01T14:50:41;37.90;;;33.35;;
30543;SDS011;43388;46.308;4.600;2023-03-01T14:53:11;42.28;;;35.10;;
30543;SDS011;43388;46.308;4.600;2023-03-01T14:55:41;45.72;;;37.65;;
30543;SDS011;43388;46.308;4.600;2023-03-01T14:58:13;41.25;;;33.17;;
30543;SDS011;43388;46.308;4.600;2023-03-01T15:00:44;36.25;;;31.48;;
30543;SDS011;43388;46.308;4.600;2023-03-01T15:03:14;38.22;;;33.03;;
30543;SDS011;43388;46.308;4.600;2023-03-01T15:05:42;36.88;;;31.90;;
30543;SDS011;43388;46.308;4.600;2023-03-01T15:08:11;38.90;;;31.42;;
30543;SDS011;43388;46.308;4.600;2023-03-01T15:10:54;36.50;;;32.35;;
30543;SDS011;43388;46.308;4.600;2023-03-01T15:13:22;39.40;;;31.13;;
30543;SDS011;43388;46.308;4.600;2023-03-01T15:15:48;37.53;;;31.08;;
30543;SDS011;43388;46.308;4.600;2023-03-01T15:20:45;37.28;;;32.10;;
30543;SDS011;43388;46.308;4.600;2023-03-01T15:25:44;37.17;;;33.00;;
30543;SDS011;43388;46.308;4.600;2023-03-01T15:28:12;47.53;;;38.33;;
30543;SDS011;43388;46.308;4.600;2023-03-01T15:30:44;38.40;;;33.22;;
30543;SDS011;43388;46.308;4.600;2023-03-01T15:35:44;37.50;;;30.40;;
30543;SDS011;43388;46.308;4.600;2023-03-01T15:40:58;38.97;;;32.28;;
30543;SDS011;43388;46.308;4.600;2023-03-01T15:43:38;38.47;;;31.45;;
30543;SDS011;43388;46.308;4.600;2023-03-01T15:46:04;36.30;;;30.45;;
30543;SDS011;43388;46.308;4.600;2023-03-01T15:48:30;40.33;;;31.27;;
30543;SDS011;43388;46.308;4.600;2023-03-01T15:50:57;35.97;;;31.25;;
30543;SDS011;43388;46.308;4.600;2023-03-01T15:53:24;37.90;;;31.23;;
30543;SDS011;43388;46.308;4.600;2023-03-01T15:55:50;41.85;;;32.70;;
30543;SDS011;43388;46.308;4.600;2023-03-01T15:58:17;36.38;;;31.45;;
30543;SDS011;43388;46.308;4.600;2023-03-01T16:00:44;37.25;;;32.40;;
30543;SDS011;43388;46.308;4.600;2023-03-01T16:03:13;35.92;;;31.13;;
30543;SDS011;43388;46.308;4.600;2023-03-01T16:05:39;37.65;;;31.65;;
30543;SDS011;43388;46.308;4.600;2023-03-01T16:08:05;39.33;;;32.58;;
30543;SDS011;43388;46.308;4.600;2023-03-01T16:10:32;40.20;;;32.10;;
30543;SDS011;43388;46.308;4.600;2023-03-01T16:12:58;41.45;;;31.17;;